Time,TemperatureF,DewpointF,PressureIn,WindDirection,WindDirectionDegrees,WindSpeedMPH,WindSpeedGustMPH,Humidity,HourlyPrecipIn,Conditions,Clouds,dailyrainin,SoftwareType,DateUTC
2013-01-01 00:00:00,30.6,25.5,29.90,SE,135,3.4,7.6,81,0.00,,,0.00,WUHU216HW,2013-01-01 05:00:00,
2013-01-01 00:01:00,30.6,25.5,29.90,SE,135,3.4,7.6,81,0.00,,,0.00,WUHU216HW,2013-01-01 05:01:00,
2013-01-01 00:06:00,30.6,25.5,29.90,SE,135,6.3,6.9,81,0.00,,,0.00,WUHU216HW,2013-01-01 05:06:00,
2013-01-01 00:11:00,30.6,25.5,29.90,SSE,158,7.4,7.4,81,0.00,,,0.00,WUHU216HW,2013-01-01 05:11:00,
2013-01-01 00:15:00,30.6,25.5,29.90,SE,135,6.9,7.4,81,0.00,,,0.00,WUHU216HW,2013-01-01 05:15:00,
2013-01-01 00:20:00,30.6,25.5,29.90,SE,135,6.3,7.6,81,0.00,,,0.00,WUHU216HW,2013-01-01 05:20:00,
2013-01-01 00:25:00,30.6,25.5,29.90,East,90,3.6,7.6,81,0.00,,,0.00,WUHU216HW,2013-01-01 05:25:00,
2013-01-01 00:30:00,30.6,25.7,29.90,SSE,158,6.0,7.6,82,0.00,,,0.00,WUHU216HW,2013-01-01 05:30:00,
2013-01-01 00:35:00,30.6,25.5,29.90,South,180,3.4,7.2,81,0.00,,,0.00,WUHU216HW,2013-01-01 05:35:00,
2013-01-01 00:41:00,30.6,25.7,29.90,SW,225,1.8,4.3,82,0.00,,,0.00,WUHU216HW,2013-01-01 05:41:00,
2013-01-01 00:46:00,30.6,25.7,29.90,SE,135,4.9,4.9,82,0.00,,,0.00,WUHU216HW,2013-01-01 05:46:00,
2013-01-01 00:51:00,30.6,25.7,29.90,ESE,113,1.8,6.7,82,0.00,,,0.00,WUHU216HW,2013-01-01 05:51:00,
2013-01-01 00:56:00,30.6,25.7,29.90,SE,135,4.9,6.7,82,0.00,,,0.00,WUHU216HW,2013-01-01 05:56:00,
2013-01-01 01:01:00,30.6,25.7,29.90,SE,135,3.4,6.3,82,0.00,,,0.00,WUHU216HW,2013-01-01 06:01:00,
2013-01-01 01:06:00,30.6,25.7,29.90,SE,135,6.9,6.9,82,0.00,,,0.00,WUHU216HW,2013-01-01 06:06:00,
2013-01-01 01:11:00,30.6,25.7,29.90,SE,135,4.9,6.9,82,0.00,,,0.00,WUHU216HW,2013-01-01 06:11:00,
2013-01-01 01:16:00,30.6,26.1,29.90,SE,135,6.7,7.4,83,0.00,,,0.00,WUHU216HW,2013-01-01 06:16:00,
2013-01-01 01:21:00,30.8,25.9,29.90,South,180,2.0,7.4,82,0.00,,,0.00,WUHU216HW,2013-01-01 06:21:00,
2013-01-01 01:26:00,31.0,26.1,29.90,ESE,113,4.0,5.4,82,0.00,,,0.00,WUHU216HW,2013-01-01 06:26:00,
2013-01-01 01:31:00,31.0,26.1,29.90,SSE,158,2.2,4.7,82,0.00,,,0.00,WUHU216HW,2013-01-01 06:31:00,
2013-01-01 01:36:00,30.8,25.7,29.90,SE,135,6.5,7.2,81,0.00,,,0.00,WUHU216HW,2013-01-01 06:36:00,
2013-01-01 01:41:00,30.6,25.7,29.90,SE,135,3.4,7.2,82,0.00,,,0.00,WUHU216HW,2013-01-01 06:41:00,
2013-01-01 01:46:00,30.6,25.7,29.90,SE,135,5.8,6.9,82,0.00,,,0.00,WUHU216HW,2013-01-01 06:46:00,
2013-01-01 01:51:00,30.6,25.7,29.90,SE,135,5.4,6.9,82,0.00,,,0.00,WUHU216HW,2013-01-01 06:51:00,
2013-01-01 01:56:00,30.8,25.9,29.90,ESE,113,4.7,7.8,82,0.00,,,0.00,WUHU216HW,2013-01-01 06:56:00,
2013-01-01 02:01:00,30.8,25.7,29.91,SE,135,5.1,7.8,81,0.00,,,0.00,WUHU216HW,2013-01-01 07:01:00,
2013-01-01 02:06:00,30.8,25.7,29.91,SE,135,1.8,6.3,81,0.00,,,0.00,WUHU216HW,2013-01-01 07:06:00,
2013-01-01 02:11:00,30.8,25.7,29.91,SE,135,2.5,6.3,81,0.00,,,0.00,WUHU216HW,2013-01-01 07:11:00,
2013-01-01 02:16:00,30.8,25.7,29.90,ESE,113,2.9,3.6,81,0.00,,,0.00,WUHU216HW,2013-01-01 07:16:00,
2013-01-01 02:21:00,30.6,25.5,29.91,ESE,113,0.0,3.6,81,0.00,,,0.00,WUHU216HW,2013-01-01 07:21:00,
2013-01-01 02:26:00,30.6,25.5,29.90,SE,135,4.0,4.5,81,0.00,,,0.00,WUHU216HW,2013-01-01 07:26:00,
2013-01-01 02:31:00,30.6,25.5,29.90,ESE,113,2.9,4.7,81,0.00,,,0.00,WUHU216HW,2013-01-01 07:31:00,
2013-01-01 02:36:00,30.8,25.7,29.90,ESE,113,3.1,4.7,81,0.00,,,0.00,WUHU216HW,2013-01-01 07:36:00,
2013-01-01 02:41:00,30.8,25.7,29.90,ESE,113,3.6,3.6,81,0.00,,,0.00,WUHU216HW,2013-01-01 07:41:00,
2013-01-01 02:46:00,30.8,25.4,29.90,East,90,2.0,3.6,80,0.00,,,0.00,WUHU216HW,2013-01-01 07:46:00,
2013-01-01 02:51:00,30.8,25.0,29.90,ESE,113,2.5,4.0,79,0.00,,,0.00,WUHU216HW,2013-01-01 07:51:00,
2013-01-01 02:56:00,30.8,25.0,29.90,East,90,4.3,4.3,79,0.00,,,0.00,WUHU216HW,2013-01-01 07:56:00,
2013-01-01 03:01:00,31.0,24.9,29.90,ESE,113,0.4,4.3,78,0.00,,,0.00,WUHU216HW,2013-01-01 08:01:00,
2013-01-01 03:06:00,31.3,25.3,29.90,ENE,68,0.4,3.6,78,0.00,,,0.00,WUHU216HW,2013-01-01 08:06:00,
2013-01-01 03:11:00,31.5,25.5,29.90,ENE,68,1.6,3.6,78,0.00,,,0.00,WUHU216HW,2013-01-01 08:11:00,
2013-01-01 03:16:00,31.9,25.8,29.90,NW,315,5.8,7.6,78,0.00,,,0.00,WUHU216HW,2013-01-01 08:16:00,
2013-01-01 03:21:00,33.1,24.4,29.90,West,270,7.4,11.2,70,0.00,,,0.00,WUHU216HW,2013-01-01 08:21:00,
2013-01-01 03:26:00,34.0,25.6,29.91,WNW,293,9.2,11.2,71,0.00,,,0.00,WUHU216HW,2013-01-01 08:26:00,
2013-01-01 03:31:00,34.0,25.2,29.91,NW,315,9.2,13.6,70,0.00,,,0.00,WUHU216HW,2013-01-01 08:31:00,
2013-01-01 03:36:00,34.0,24.8,29.91,West,270,9.6,13.6,69,0.00,,,0.00,WUHU216HW,2013-01-01 08:36:00,
2013-01-01 03:41:00,34.2,24.7,29.92,NW,315,9.2,11.6,68,0.00,,,0.00,WUHU216HW,2013-01-01 08:41:00,
2013-01-01 03:46:00,34.2,23.6,29.92,West,270,9.8,11.2,65,0.00,,,0.00,WUHU216HW,2013-01-01 08:46:00,
2013-01-01 03:51:00,34.2,23.6,29.92,NNW,338,7.4,14.5,65,0.00,,,0.00,WUHU216HW,2013-01-01 08:51:00,
2013-01-01 03:56:00,34.2,23.9,29.92,NW,315,9.2,14.5,66,0.00,,,0.00,WUHU216HW,2013-01-01 08:56:00,
2013-01-01 04:01:00,34.0,24.1,29.92,WNW,293,6.3,9.2,67,0.00,,,0.00,WUHU216HW,2013-01-01 09:01:00,
2013-01-01 04:06:00,34.0,22.0,29.93,WSW,248,5.6,11.0,61,0.00,,,0.00,WUHU216HW,2013-01-01 09:06:00,
2013-01-01 04:11:00,34.2,20.9,29.93,WNW,293,4.7,11.0,58,0.00,,,0.00,WUHU216HW,2013-01-01 09:11:00,
2013-01-01 04:16:00,34.2,20.9,29.93,NNW,338,4.5,9.6,58,0.00,,,0.00,WUHU216HW,2013-01-01 09:16:00,
2013-01-01 04:21:00,34.0,22.0,29.93,NNW,338,4.3,8.5,61,0.00,,,0.00,WUHU216HW,2013-01-01 09:21:00,
2013-01-01 04:26:00,33.7,22.0,29.94,NNW,338,8.7,8.7,62,0.00,,,0.00,WUHU216HW,2013-01-01 09:26:00,
2013-01-01 04:31:00,33.3,21.7,29.94,NW,315,9.2,12.3,62,0.00,,,0.00,WUHU216HW,2013-01-01 09:31:00,
2013-01-01 04:36:00,33.3,20.1,29.95,West,270,13.4,27.3,58,0.00,,,0.00,WUHU216HW,2013-01-01 09:36:00,
2013-01-01 04:41:00,33.1,19.1,29.95,West,270,12.8,27.3,56,0.00,,,0.00,WUHU216HW,2013-01-01 09:41:00,
2013-01-01 04:46:00,33.1,19.1,29.95,West,270,13.9,23.3,56,0.00,,,0.00,WUHU216HW,2013-01-01 09:46:00,
2013-01-01 04:51:00,32.8,18.7,29.96,NE,45,6.3,23.3,56,0.00,,,0.00,WUHU216HW,2013-01-01 09:51:00,
2013-01-01 04:56:00,32.4,18.4,29.96,NNE,23,4.0,14.3,56,0.00,,,0.00,WUHU216HW,2013-01-01 09:56:00,
2013-01-01 05:01:00,32.4,18.8,29.96,NNW,338,4.9,10.5,57,0.00,,,0.00,WUHU216HW,2013-01-01 10:01:00,
2013-01-01 05:06:00,32.2,18.3,29.96,North,0,5.4,9.2,56,0.00,,,0.00,WUHU216HW,2013-01-01 10:06:00,
2013-01-01 05:11:00,32.2,17.8,29.96,West,270,9.8,9.8,55,0.00,,,0.00,WUHU216HW,2013-01-01 10:11:00,
2013-01-01 05:16:00,32.0,18.1,29.97,SE,135,5.8,9.8,56,0.00,,,0.00,WUHU216HW,2013-01-01 10:16:00,
2013-01-01 05:21:00,31.7,18.5,29.97,NW,315,9.2,9.2,58,0.00,,,0.00,WUHU216HW,2013-01-01 10:21:00,
2013-01-01 05:26:00,31.7,18.5,29.97,West,270,4.3,9.2,58,0.00,,,0.00,WUHU216HW,2013-01-01 10:26:00,
2013-01-01 05:31:00,31.5,18.0,29.98,West,270,6.0,7.4,57,0.00,,,0.00,WUHU216HW,2013-01-01 10:31:00,
2013-01-01 05:36:00,31.5,18.8,29.98,NW,315,10.5,12.8,59,0.00,,,0.00,WUHU216HW,2013-01-01 10:36:00,
2013-01-01 05:41:00,31.3,19.1,29.98,North,0,5.6,12.8,60,0.00,,,0.00,WUHU216HW,2013-01-01 10:41:00,
2013-01-01 05:46:00,31.3,20.2,29.98,NW,315,14.3,17.0,63,0.00,,,0.00,WUHU216HW,2013-01-01 10:46:00,
2013-01-01 05:51:00,31.3,19.8,29.99,NW,315,13.0,17.4,62,0.00,,,0.00,WUHU216HW,2013-01-01 10:51:00,
2013-01-01 05:56:00,31.1,18.5,29.99,WNW,293,14.3,17.7,59,0.00,,,0.00,WUHU216HW,2013-01-01 10:56:00,
2013-01-01 06:01:00,31.0,19.4,30.00,NW,315,15.0,17.7,62,0.00,,,0.00,WUHU216HW,2013-01-01 11:01:00,
2013-01-01 06:06:00,31.0,20.5,30.00,West,270,10.5,17.4,65,0.00,,,0.00,WUHU216HW,2013-01-01 11:06:00,
2013-01-01 06:11:00,31.0,20.2,30.00,NNW,338,15.0,16.3,64,0.00,,,0.00,WUHU216HW,2013-01-01 11:11:00,
2013-01-01 06:16:00,30.8,19.3,30.01,NW,315,5.4,16.3,62,0.00,,,0.00,WUHU216HW,2013-01-01 11:16:00,
2013-01-01 06:21:00,30.6,19.1,30.00,NW,315,13.6,13.6,62,0.00,,,0.00,WUHU216HW,2013-01-01 11:21:00,
2013-01-01 06:26:00,30.4,18.9,30.00,West,270,17.9,17.9,62,0.00,,,0.00,WUHU216HW,2013-01-01 11:26:00,
2013-01-01 06:31:00,30.6,18.4,30.00,NW,315,22.6,22.6,60,0.00,,,0.00,WUHU216HW,2013-01-01 11:31:00,
2013-01-01 06:36:00,29.9,18.0,30.00,NW,315,25.3,25.3,61,0.00,,,0.00,WUHU216HW,2013-01-01 11:36:00,
2013-01-01 06:41:00,29.7,17.6,29.99,WNW,293,23.7,25.3,60,0.00,,,0.00,WUHU216HW,2013-01-01 11:41:00,
2013-01-01 06:46:00,29.7,17.9,29.99,NW,315,21.3,23.7,61,0.00,,,0.00,WUHU216HW,2013-01-01 11:46:00,
2013-01-01 06:51:00,29.5,18.1,30.00,NW,315,26.6,26.6,62,0.00,,,0.00,WUHU216HW,2013-01-01 11:51:00,
2013-01-01 06:56:00,29.2,17.7,30.00,WNW,293,27.3,27.3,62,0.00,,,0.00,WUHU216HW,2013-01-01 11:56:00,
2013-01-01 07:01:00,29.0,17.6,30.01,NW,315,22.8,27.5,62,0.00,,,0.00,WUHU216HW,2013-01-01 12:01:00,
2013-01-01 07:06:00,28.6,18.0,30.01,NW,315,20.1,27.5,64,0.00,,,0.00,WUHU216HW,2013-01-01 12:06:00,
2013-01-01 07:11:00,28.6,18.4,30.03,NW,315,25.3,27.5,65,0.00,,,0.00,WUHU216HW,2013-01-01 12:11:00,
2013-01-01 07:16:00,28.4,17.5,30.03,NNW,338,17.2,25.3,63,0.00,,,0.00,WUHU216HW,2013-01-01 12:16:00,
2013-01-01 07:21:00,28.1,16.7,30.04,NNE,23,2.5,25.1,62,0.00,,,0.00,WUHU216HW,2013-01-01 12:21:00,
2013-01-01 07:26:00,27.7,16.4,30.05,North,0,5.4,12.1,62,0.00,,,0.00,WUHU216HW,2013-01-01 12:26:00,
2013-01-01 07:31:00,27.5,16.2,30.06,ENE,68,2.2,5.4,62,0.00,,,0.00,WUHU216HW,2013-01-01 12:31:00,
2013-01-01 07:36:00,27.2,15.8,30.06,NNE,23,7.2,7.2,62,0.00,,,0.00,WUHU216HW,2013-01-01 12:36:00,
2013-01-01 07:41:00,27.0,15.7,30.06,WNW,293,2.7,7.2,62,0.00,,,0.00,WUHU216HW,2013-01-01 12:41:00,
2013-01-01 07:46:00,26.5,14.8,30.07,NNE,23,3.4,8.9,61,0.00,,,0.00,WUHU216HW,2013-01-01 12:46:00,
2013-01-01 07:51:00,26.3,14.9,30.07,WNW,293,3.8,17.0,62,0.00,,,0.00,WUHU216HW,2013-01-01 12:51:00,
2013-01-01 07:56:00,25.9,14.7,30.07,NNW,338,10.3,17.0,62,0.00,,,0.00,WUHU216HW,2013-01-01 12:56:00,
2013-01-01 08:01:00,25.6,14.0,30.08,NW,315,13.9,13.9,61,0.00,,,0.00,WUHU216HW,2013-01-01 13:01:00,
2013-01-01 08:06:00,25.6,14.7,30.08,NW,315,13.2,15.0,63,0.00,,,0.00,WUHU216HW,2013-01-01 13:06:00,
2013-01-01 08:11:00,25.6,14.3,30.08,NNW,338,7.2,15.0,62,0.00,,,0.00,WUHU216HW,2013-01-01 13:11:00,
2013-01-01 08:16:00,25.4,14.1,30.08,NW,315,12.1,21.0,62,0.00,,,0.00,WUHU216HW,2013-01-01 13:16:00,
2013-01-01 08:21:00,25.0,13.5,30.07,NW,315,12.8,21.0,61,0.00,,,0.00,WUHU216HW,2013-01-01 13:21:00,
2013-01-01 08:26:00,24.8,13.7,30.08,NNW,338,6.0,15.2,62,0.00,,,0.00,WUHU216HW,2013-01-01 13:26:00,
2013-01-01 08:31:00,24.8,15.0,30.08,WNW,293,16.3,16.3,66,0.00,,,0.00,WUHU216HW,2013-01-01 13:31:00,
2013-01-01 08:36:00,24.8,14.3,30.07,NW,315,13.0,16.3,64,0.00,,,0.00,WUHU216HW,2013-01-01 13:36:00,
2013-01-01 08:41:00,24.8,14.3,30.08,NW,315,9.2,18.1,64,0.00,,,0.00,WUHU216HW,2013-01-01 13:41:00,
2013-01-01 08:46:00,24.7,13.5,30.08,NNE,23,5.4,18.1,62,0.00,,,0.00,WUHU216HW,2013-01-01 13:46:00,
2013-01-01 08:51:00,24.5,14.0,30.08,WSW,248,6.9,12.8,64,0.00,,,0.00,WUHU216HW,2013-01-01 13:51:00,
2013-01-01 08:56:00,24.3,13.8,30.08,NNW,338,5.1,12.8,64,0.00,,,0.00,WUHU216HW,2013-01-01 13:56:00,
2013-01-01 09:01:00,24.3,13.5,30.08,WNW,293,5.1,11.6,63,0.00,,,0.00,WUHU216HW,2013-01-01 14:01:00,
2013-01-01 09:06:00,24.1,13.3,30.08,NNW,338,9.2,11.6,63,0.00,,,0.00,WUHU216HW,2013-01-01 14:06:00,
2013-01-01 09:11:00,23.8,13.0,30.09,NNW,338,5.8,9.8,63,0.00,,,0.00,WUHU216HW,2013-01-01 14:11:00,
2013-01-01 09:16:00,23.9,13.5,30.09,NNE,23,6.7,10.1,64,0.00,,,0.00,WUHU216HW,2013-01-01 14:16:00,
2013-01-01 09:21:00,23.8,13.0,30.09,NNW,338,3.4,10.1,63,0.00,,,0.00,WUHU216HW,2013-01-01 14:21:00,
2013-01-01 09:26:00,23.4,12.3,30.10,ESE,113,1.8,9.6,62,0.00,,,0.00,WUHU216HW,2013-01-01 14:26:00,
2013-01-01 09:31:00,23.2,12.1,30.10,NNE,23,4.7,8.1,62,0.00,,,0.00,WUHU216HW,2013-01-01 14:31:00,
2013-01-01 09:36:00,23.0,12.2,30.11,NNW,338,3.4,8.1,63,0.00,,,0.00,WUHU216HW,2013-01-01 14:36:00,
2013-01-01 09:41:00,22.7,11.5,30.11,NNW,338,4.5,6.5,62,0.00,,,0.00,WUHU216HW,2013-01-01 14:41:00,
2013-01-01 09:46:00,22.7,11.2,30.10,West,270,4.0,10.5,61,0.00,,,0.00,WUHU216HW,2013-01-01 14:46:00,
2013-01-01 09:51:00,22.5,11.3,30.11,ENE,68,4.3,12.1,62,0.00,,,0.00,WUHU216HW,2013-01-01 14:51:00,
2013-01-01 09:56:00,22.5,11.3,30.11,North,0,4.5,12.1,62,0.00,,,0.00,WUHU216HW,2013-01-01 14:56:00,
2013-01-01 10:01:00,22.3,11.3,30.11,NNW,338,3.8,7.6,62,0.00,,,0.00,WUHU216HW,2013-01-01 15:01:00,
2013-01-01 10:06:00,22.5,11.3,30.11,NNW,338,4.3,7.6,62,0.00,,,0.00,WUHU216HW,2013-01-01 15:06:00,
2013-01-01 10:11:00,22.5,11.1,30.11,North,0,2.5,12.1,61,0.00,,,0.00,WUHU216HW,2013-01-01 15:11:00,
2013-01-01 10:16:00,22.5,11.1,30.11,North,0,3.4,12.1,61,0.00,,,0.00,WUHU216HW,2013-01-01 15:16:00,
2013-01-01 10:21:00,22.5,11.1,30.11,ENE,68,1.1,7.4,61,0.00,,,0.00,WUHU216HW,2013-01-01 15:21:00,
2013-01-01 10:26:00,22.5,11.1,30.12,NE,45,3.1,7.6,61,0.00,,,0.00,WUHU216HW,2013-01-01 15:26:00,
2013-01-01 10:31:00,22.5,11.1,30.12,NE,45,2.9,7.6,61,0.00,,,0.00,WUHU216HW,2013-01-01 15:31:00,
2013-01-01 10:36:00,22.7,11.2,30.12,ENE,68,2.5,4.5,61,0.00,,,0.00,WUHU216HW,2013-01-01 15:36:00,
2013-01-01 10:41:00,22.7,11.2,30.11,North,0,8.3,8.3,61,0.00,,,0.00,WUHU216HW,2013-01-01 15:41:00,
2013-01-01 10:46:00,22.7,11.2,30.10,North,0,9.2,9.2,61,0.00,,,0.00,WUHU216HW,2013-01-01 15:46:00,
2013-01-01 10:51:00,22.9,11.3,30.10,East,90,3.4,9.2,61,0.00,,,0.00,WUHU216HW,2013-01-01 15:51:00,
2013-01-01 10:56:00,23.0,11.5,30.10,ENE,68,2.0,4.0,61,0.00,,,0.00,WUHU216HW,2013-01-01 15:56:00,
2013-01-01 11:01:00,23.2,11.7,30.10,NE,45,2.5,4.3,61,0.00,,,0.00,WUHU216HW,2013-01-01 16:01:00,
2013-01-01 11:06:00,23.2,11.3,30.10,SE,135,1.1,4.3,60,0.00,,,0.00,WUHU216HW,2013-01-01 16:06:00,
2013-01-01 11:11:00,23.4,11.5,30.10,North,0,2.2,3.4,60,0.00,,,0.00,WUHU216HW,2013-01-01 16:11:00,
2013-01-01 11:16:00,23.4,11.5,30.10,NNE,23,2.5,5.4,60,0.00,,,0.00,WUHU216HW,2013-01-01 16:16:00,
2013-01-01 11:21:00,23.8,11.9,30.10,NNE,23,3.4,5.4,60,0.00,,,0.00,WUHU216HW,2013-01-01 16:21:00,
2013-01-01 11:26:00,23.9,12.1,30.10,NNE,23,3.4,3.8,60,0.00,,,0.00,WUHU216HW,2013-01-01 16:26:00,
2013-01-01 11:31:00,23.9,11.6,30.10,ENE,68,2.2,3.8,59,0.00,,,0.00,WUHU216HW,2013-01-01 16:31:00,
2013-01-01 11:36:00,23.9,11.6,30.10,North,0,3.4,4.7,59,0.00,,,0.00,WUHU216HW,2013-01-01 16:36:00,
2013-01-01 11:41:00,23.6,10.9,30.09,NE,45,2.0,7.8,58,0.00,,,0.00,WUHU216HW,2013-01-01 16:41:00,
2013-01-01 11:46:00,23.6,11.4,30.09,NNE,23,2.2,7.8,59,0.00,,,0.00,WUHU216HW,2013-01-01 16:46:00,
2013-01-01 11:51:00,23.6,11.4,30.09,NNW,338,1.3,7.2,59,0.00,,,0.00,WUHU216HW,2013-01-01 16:51:00,
2013-01-01 11:56:00,23.8,11.5,30.09,ESE,113,5.4,7.2,59,0.00,,,0.00,WUHU216HW,2013-01-01 16:56:00,
2013-01-01 12:01:00,23.4,11.2,30.09,NNE,23,3.4,6.5,59,0.00,,,0.00,WUHU216HW,2013-01-01 17:01:00,
2013-01-01 12:06:00,23.4,11.2,30.09,North,0,3.8,6.5,59,0.00,,,0.00,WUHU216HW,2013-01-01 17:06:00,
2013-01-01 12:11:00,23.4,11.2,30.09,ESE,113,4.5,6.3,59,0.00,,,0.00,WUHU216HW,2013-01-01 17:11:00,
2013-01-01 12:16:00,23.4,10.7,30.09,North,0,6.3,6.9,58,0.00,,,0.00,WUHU216HW,2013-01-01 17:16:00,
2013-01-01 12:21:00,23.4,11.2,30.09,North,0,4.7,7.4,59,0.00,,,0.00,WUHU216HW,2013-01-01 17:21:00,
2013-01-01 12:26:00,23.6,11.4,30.09,NW,315,2.2,7.4,59,0.00,,,0.00,WUHU216HW,2013-01-01 17:26:00,
2013-01-01 12:31:00,23.6,11.4,30.08,NW,315,4.7,12.5,59,0.00,,,0.00,WUHU216HW,2013-01-01 17:31:00,
2013-01-01 12:36:00,23.8,11.5,30.08,North,0,0.4,12.5,59,0.00,,,0.00,WUHU216HW,2013-01-01 17:36:00,
2013-01-01 12:41:00,23.8,11.5,30.08,WNW,293,20.1,20.1,59,0.00,,,0.00,WUHU216HW,2013-01-01 17:41:00,
2013-01-01 12:46:00,23.6,10.9,30.08,NNW,338,15.0,20.1,58,0.00,,,0.00,WUHU216HW,2013-01-01 17:46:00,
2013-01-01 12:51:00,23.2,11.3,30.08,WNW,293,21.7,25.3,60,0.00,,,0.00,WUHU216HW,2013-01-01 17:51:00,
2013-01-01 12:56:00,23.2,10.5,30.08,NW,315,23.3,25.3,58,0.00,,,0.00,WUHU216HW,2013-01-01 17:56:00,
2013-01-01 13:01:00,22.9,9.8,30.08,NW,315,18.3,23.3,57,0.00,,,0.00,WUHU216HW,2013-01-01 18:01:00,
2013-01-01 13:06:00,23.0,10.4,30.07,NW,315,19.5,22.4,58,0.00,,,0.00,WUHU216HW,2013-01-01 18:06:00,
2013-01-01 13:11:00,23.0,11.5,30.08,WNW,293,20.1,23.0,61,0.00,,,0.00,WUHU216HW,2013-01-01 18:11:00,
2013-01-01 13:16:00,22.7,9.6,30.07,WNW,293,16.8,23.0,57,0.00,,,0.00,WUHU216HW,2013-01-01 18:16:00,
2013-01-01 13:21:00,22.9,10.2,30.07,NW,315,20.1,20.8,58,0.00,,,0.00,WUHU216HW,2013-01-01 18:21:00,
2013-01-01 13:26:00,22.7,9.6,30.07,NW,315,17.4,20.8,57,0.00,,,0.00,WUHU216HW,2013-01-01 18:26:00,
2013-01-01 13:31:00,22.9,10.2,30.06,West,270,17.9,20.1,58,0.00,,,0.00,WUHU216HW,2013-01-01 18:31:00,
2013-01-01 13:36:00,23.0,10.4,30.06,WNW,293,15.4,20.1,58,0.00,,,0.00,WUHU216HW,2013-01-01 18:36:00,
2013-01-01 13:41:00,23.2,10.2,30.06,NW,315,15.9,19.2,57,0.00,,,0.00,WUHU216HW,2013-01-01 18:41:00,
2013-01-01 13:46:00,23.6,11.4,30.07,NW,315,15.0,19.2,59,0.00,,,0.00,WUHU216HW,2013-01-01 18:46:00,
2013-01-01 13:51:00,23.4,11.2,30.07,NW,315,20.4,22.1,59,0.00,,,0.00,WUHU216HW,2013-01-01 18:51:00,
2013-01-01 13:56:00,23.2,10.5,30.07,NW,315,22.4,24.8,58,0.00,,,0.00,WUHU216HW,2013-01-01 18:56:00,
2013-01-01 14:01:00,23.4,11.2,30.07,NW,315,18.6,24.8,59,0.00,,,0.00,WUHU216HW,2013-01-01 19:01:00,
2013-01-01 14:06:00,23.2,9.7,30.07,NW,315,21.5,21.5,56,0.00,,,0.00,WUHU216HW,2013-01-01 19:06:00,
2013-01-01 14:11:00,23.0,10.0,30.08,WNW,293,18.6,21.5,57,0.00,,,0.00,WUHU216HW,2013-01-01 19:11:00,
2013-01-01 14:16:00,23.0,10.0,30.08,WNW,293,20.1,20.8,57,0.00,,,0.00,WUHU216HW,2013-01-01 19:16:00,
2013-01-01 14:21:00,23.2,10.2,30.08,NW,315,18.1,20.8,57,0.00,,,0.00,WUHU216HW,2013-01-01 19:21:00,
2013-01-01 14:26:00,23.0,9.5,30.08,NNW,338,20.8,21.5,56,0.00,,,0.00,WUHU216HW,2013-01-01 19:26:00,
2013-01-01 14:31:00,23.0,9.2,30.08,NW,315,23.0,23.0,55,0.00,,,0.00,WUHU216HW,2013-01-01 19:31:00,
2013-01-01 14:36:00,22.9,9.0,30.08,NW,315,20.8,23.0,55,0.00,,,0.00,WUHU216HW,2013-01-01 19:36:00,
2013-01-01 14:41:00,23.0,10.0,30.08,NNW,338,21.9,24.2,57,0.00,,,0.00,WUHU216HW,2013-01-01 19:41:00,
2013-01-01 14:46:00,23.0,10.0,30.08,NW,315,18.8,24.2,57,0.00,,,0.00,WUHU216HW,2013-01-01 19:46:00,
2013-01-01 14:51:00,22.7,8.8,30.08,NW,315,18.8,23.7,55,0.00,,,0.00,WUHU216HW,2013-01-01 19:51:00,
2013-01-01 14:56:00,22.9,9.5,30.08,WNW,293,18.6,23.0,56,0.00,,,0.00,WUHU216HW,2013-01-01 19:56:00,
2013-01-01 15:01:00,22.7,9.3,30.08,NW,315,21.5,23.0,56,0.00,,,0.00,WUHU216HW,2013-01-01 20:01:00,
2013-01-01 15:06:00,23.2,9.7,30.08,NNW,338,21.0,23.9,56,0.00,,,0.00,WUHU216HW,2013-01-01 20:06:00,
2013-01-01 15:11:00,22.9,9.0,30.08,NW,315,21.5,23.9,55,0.00,,,0.00,WUHU216HW,2013-01-01 20:11:00,
2013-01-01 15:16:00,22.7,8.5,30.08,WNW,293,25.1,25.9,54,0.00,,,0.00,WUHU216HW,2013-01-01 20:16:00,
2013-01-01 15:21:00,22.7,8.5,30.08,West,270,24.4,26.8,54,0.00,,,0.00,WUHU216HW,2013-01-01 20:21:00,
2013-01-01 15:26:00,22.7,8.0,30.08,West,270,25.9,26.8,53,0.00,,,0.00,WUHU216HW,2013-01-01 20:26:00,
2013-01-01 15:31:00,22.5,8.3,30.08,WNW,293,23.0,26.8,54,0.00,,,0.00,WUHU216HW,2013-01-01 20:31:00,
2013-01-01 15:36:00,22.5,7.8,30.08,NW,315,20.6,26.8,53,0.00,,,0.00,WUHU216HW,2013-01-01 20:36:00,
2013-01-01 15:41:00,22.0,7.7,30.09,West,270,19.9,23.9,54,0.00,,,0.00,WUHU216HW,2013-01-01 20:41:00,
2013-01-01 15:46:00,22.0,7.4,30.09,NNW,338,15.9,21.9,53,0.00,,,0.00,WUHU216HW,2013-01-01 20:46:00,
2013-01-01 15:51:00,21.6,7.0,30.09,WNW,293,17.2,21.9,53,0.00,,,0.00,WUHU216HW,2013-01-01 20:51:00,
2013-01-01 15:56:00,21.6,6.6,30.09,NW,315,17.2,20.6,52,0.00,,,0.00,WUHU216HW,2013-01-01 20:56:00,
2013-01-01 16:01:00,21.8,8.0,30.09,West,270,16.3,20.6,55,0.00,,,0.00,WUHU216HW,2013-01-01 21:01:00,
2013-01-01 16:06:00,21.4,6.9,30.09,West,270,16.1,18.3,53,0.00,,,0.00,WUHU216HW,2013-01-01 21:06:00,
2013-01-01 16:11:00,21.2,7.5,30.10,WNW,293,18.1,18.1,55,0.00,,,0.00,WUHU216HW,2013-01-01 21:11:00,
2013-01-01 16:16:00,20.9,6.0,30.10,WNW,293,14.8,18.1,52,0.00,,,0.00,WUHU216HW,2013-01-01 21:16:00,
2013-01-01 16:21:00,21.1,6.5,30.10,WNW,293,14.1,17.4,53,0.00,,,0.00,WUHU216HW,2013-01-01 21:21:00,
2013-01-01 16:26:00,21.1,6.9,30.11,West,270,15.0,16.3,54,0.00,,,0.00,WUHU216HW,2013-01-01 21:26:00,
2013-01-01 16:31:00,20.9,6.0,30.11,NW,315,16.3,17.9,52,0.00,,,0.00,WUHU216HW,2013-01-01 21:31:00,
2013-01-01 16:36:00,20.7,5.8,30.11,West,270,13.2,17.9,52,0.00,,,0.00,WUHU216HW,2013-01-01 21:36:00,
2013-01-01 16:41:00,20.5,6.8,30.11,WNW,293,17.9,17.9,55,0.00,,,0.00,WUHU216HW,2013-01-01 21:41:00,
2013-01-01 16:46:00,20.2,5.2,30.11,WNW,293,14.1,17.9,52,0.00,,,0.00,WUHU216HW,2013-01-01 21:46:00,
2013-01-01 16:51:00,20.0,6.3,30.11,WNW,293,12.1,14.5,55,0.00,,,0.00,WUHU216HW,2013-01-01 21:51:00,
2013-01-01 16:56:00,20.3,7.0,30.11,NW,315,12.1,13.4,56,0.00,,,0.00,WUHU216HW,2013-01-01 21:56:00,
2013-01-01 17:01:00,20.2,6.0,30.11,NW,315,13.2,15.2,54,0.00,,,0.00,WUHU216HW,2013-01-01 22:01:00,
2013-01-01 17:06:00,19.8,6.1,30.12,WNW,293,14.8,15.2,55,0.00,,,0.00,WUHU216HW,2013-01-01 22:06:00,
2013-01-01 17:11:00,19.6,5.5,30.13,WNW,293,11.4,14.8,54,0.00,,,0.00,WUHU216HW,2013-01-01 22:11:00,
2013-01-01 17:16:00,19.6,6.3,30.13,WSW,248,9.6,14.8,56,0.00,,,0.00,WUHU216HW,2013-01-01 22:16:00,
2013-01-01 17:21:00,19.8,6.9,30.13,NW,315,13.4,15.0,57,0.00,,,0.00,WUHU216HW,2013-01-01 22:21:00,
2013-01-01 17:26:00,19.6,6.0,30.14,WNW,293,15.0,15.0,55,0.00,,,0.00,WUHU216HW,2013-01-01 22:26:00,
2013-01-01 17:31:00,19.4,5.4,30.13,West,270,10.5,15.0,54,0.00,,,0.00,WUHU216HW,2013-01-01 22:31:00,
2013-01-01 17:36:00,19.4,5.8,30.13,WNW,293,9.4,15.0,55,0.00,,,0.00,WUHU216HW,2013-01-01 22:36:00,
2013-01-01 17:41:00,19.6,6.0,30.14,NNW,338,7.4,10.1,55,0.00,,,0.00,WUHU216HW,2013-01-01 22:41:00,
2013-01-01 17:46:00,19.8,6.5,30.13,NW,315,12.8,13.9,56,0.00,,,0.00,WUHU216HW,2013-01-01 22:46:00,
2013-01-01 17:51:00,19.8,6.5,30.13,NNW,338,6.7,13.9,56,0.00,,,0.00,WUHU216HW,2013-01-01 22:51:00,
2013-01-01 17:56:00,19.4,5.8,30.14,WNW,293,13.4,13.4,55,0.00,,,0.00,WUHU216HW,2013-01-01 22:56:00,
2013-01-01 18:01:00,19.1,5.4,30.14,NW,315,11.9,13.4,55,0.00,,,0.00,WUHU216HW,2013-01-01 23:01:00,
2013-01-01 18:06:00,19.4,6.6,30.14,NW,315,13.0,13.0,57,0.00,,,0.00,WUHU216HW,2013-01-01 23:06:00,
2013-01-01 18:11:00,19.4,6.1,30.14,NW,315,9.6,13.9,56,0.00,,,0.00,WUHU216HW,2013-01-01 23:11:00,
2013-01-01 18:16:00,19.3,5.6,30.14,West,270,10.5,13.9,55,0.00,,,0.00,WUHU216HW,2013-01-01 23:16:00,
2013-01-01 18:21:00,19.3,6.0,30.14,NW,315,11.4,14.3,56,0.00,,,0.00,WUHU216HW,2013-01-01 23:21:00,
2013-01-01 18:26:00,19.4,5.8,30.14,WNW,293,13.2,16.1,55,0.00,,,0.00,WUHU216HW,2013-01-01 23:26:00,
2013-01-01 18:31:00,19.1,5.4,30.15,NW,315,9.2,16.1,55,0.00,,,0.00,WUHU216HW,2013-01-01 23:31:00,
2013-01-01 18:36:00,19.1,5.9,30.15,NNW,338,13.4,13.4,56,0.00,,,0.00,WUHU216HW,2013-01-01 23:36:00,
2013-01-01 18:41:00,19.1,5.4,30.16,NNW,338,10.5,14.3,55,0.00,,,0.00,WUHU216HW,2013-01-01 23:41:00,
2013-01-01 18:46:00,19.1,5.4,30.16,NW,315,12.5,14.3,55,0.00,,,0.00,WUHU216HW,2013-01-01 23:46:00,
2013-01-01 18:51:00,19.4,6.6,30.16,NW,315,11.9,12.5,57,0.00,,,0.00,WUHU216HW,2013-01-01 23:51:00,
2013-01-01 18:56:00,19.3,6.0,30.16,NNW,338,10.5,11.9,56,0.00,,,0.00,WUHU216HW,2013-01-01 23:56:00,
2013-01-01 19:01:00,19.3,5.6,30.16,NW,315,9.8,11.9,55,0.00,,,0.00,WUHU216HW,2013-01-02 00:01:00,
2013-01-01 19:06:00,19.3,5.6,30.17,NNW,338,8.9,12.8,55,0.00,,,0.00,WUHU216HW,2013-01-02 00:06:00,
2013-01-01 19:11:00,19.1,5.9,30.16,NNW,338,6.5,12.8,56,0.00,,,0.00,WUHU216HW,2013-01-02 00:11:00,
2013-01-01 19:16:00,18.9,5.7,30.17,NNW,338,9.6,9.8,56,0.00,,,0.00,WUHU216HW,2013-01-02 00:16:00,
2013-01-01 19:21:00,19.1,6.2,30.17,NW,315,7.2,9.6,57,0.00,,,0.00,WUHU216HW,2013-01-02 00:21:00,
2013-01-01 19:26:00,18.7,5.5,30.17,ESE,113,2.5,9.2,56,0.00,,,0.00,WUHU216HW,2013-01-02 00:26:00,
2013-01-01 19:31:00,18.4,4.8,30.17,ENE,68,1.8,4.0,55,0.00,,,0.00,WUHU216HW,2013-01-02 00:31:00,
2013-01-01 19:36:00,17.6,3.8,30.18,ESE,113,4.0,4.5,54,0.00,,,0.00,WUHU216HW,2013-01-02 00:36:00,
2013-01-01 19:41:00,17.1,3.6,30.17,ENE,68,2.2,4.7,55,0.00,,,0.00,WUHU216HW,2013-01-02 00:41:00,
2013-01-01 19:46:00,16.6,3.2,30.17,ESE,113,2.7,4.9,55,0.00,,,0.00,WUHU216HW,2013-01-02 00:46:00,
2013-01-01 19:51:00,16.0,3.0,30.18,SE,135,4.7,4.9,56,0.00,,,0.00,WUHU216HW,2013-01-02 00:51:00,
2013-01-01 19:56:00,15.3,2.4,30.18,SE,135,6.3,6.9,56,0.00,,,0.00,WUHU216HW,2013-01-02 00:56:00,
2013-01-01 20:01:00,14.6,1.6,30.18,SE,135,4.5,6.9,56,0.00,,,0.00,WUHU216HW,2013-01-02 01:01:00,
2013-01-01 20:06:00,14.0,1.5,30.18,SE,135,4.5,6.0,57,0.00,,,0.00,WUHU216HW,2013-01-02 01:06:00,
2013-01-01 20:11:00,14.0,1.9,30.18,East,90,2.5,4.7,58,0.00,,,0.00,WUHU216HW,2013-01-02 01:11:00,
2013-01-01 20:16:00,13.7,1.5,30.18,East,90,2.5,4.3,58,0.00,,,0.00,WUHU216HW,2013-01-02 01:16:00,
2013-01-01 20:21:00,13.1,1.0,30.17,North,0,0.0,2.5,58,0.00,,,0.00,WUHU216HW,2013-01-02 01:21:00,
2013-01-01 20:26:00,12.8,0.6,30.17,ESE,113,5.6,5.6,58,0.00,,,0.00,WUHU216HW,2013-01-02 01:26:00,
2013-01-01 20:31:00,12.6,0.6,30.17,ESE,113,5.4,5.6,58,0.00,,,0.00,WUHU216HW,2013-01-02 01:31:00,
2013-01-01 20:36:00,11.7,-0.4,30.17,SE,135,4.9,5.6,58,0.00,,,0.00,WUHU216HW,2013-01-02 01:36:00,
2013-01-01 20:41:00,11.3,-0.6,30.17,SE,135,6.5,6.5,58,0.00,,,0.00,WUHU216HW,2013-01-02 01:41:00,
2013-01-01 20:46:00,11.5,-0.1,30.17,SE,135,8.1,8.1,59,0.00,,,0.00,WUHU216HW,2013-01-02 01:46:00,
2013-01-01 20:51:00,11.7,0.0,30.17,SE,135,3.6,8.1,59,0.00,,,0.00,WUHU216HW,2013-01-02 01:51:00,
2013-01-01 20:56:00,11.9,0.5,30.17,SE,135,1.3,6.5,60,0.00,,,0.00,WUHU216HW,2013-01-02 01:56:00,
2013-01-01 21:01:00,11.9,0.2,30.17,East,90,2.5,4.7,59,0.00,,,0.00,WUHU216HW,2013-01-02 02:01:00,
2013-01-01 21:06:00,11.5,-0.1,30.17,East,90,3.4,4.5,59,0.00,,,0.00,WUHU216HW,2013-01-02 02:06:00,
2013-01-01 21:11:00,11.0,-0.6,30.18,WSW,248,0.4,4.5,59,0.00,,,0.00,WUHU216HW,2013-01-02 02:11:00,
2013-01-01 21:16:00,10.6,-0.9,30.17,ENE,68,3.4,3.4,59,0.00,,,0.00,WUHU216HW,2013-01-02 02:16:00,
2013-01-01 21:21:00,10.4,-0.7,30.17,ESE,113,4.0,4.0,60,0.00,,,0.00,WUHU216HW,2013-01-02 02:21:00,
2013-01-01 21:26:00,10.4,-0.7,30.16,ESE,113,3.1,4.5,60,0.00,,,0.00,WUHU216HW,2013-01-02 02:26:00,
2013-01-01 21:31:00,9.7,-1.4,30.17,SE,135,1.1,4.5,60,0.00,,,0.00,WUHU216HW,2013-01-02 02:31:00,
2013-01-01 21:36:00,9.5,-1.6,30.16,ESE,113,4.9,4.9,60,0.00,,,0.00,WUHU216HW,2013-01-02 02:36:00,
2013-01-01 21:41:00,9.4,-1.8,30.16,ESE,113,3.4,5.6,60,0.00,,,0.00,WUHU216HW,2013-01-02 02:41:00,
2013-01-01 21:46:00,9.2,-2.0,30.16,SE,135,1.6,5.6,60,0.00,,,0.00,WUHU216HW,2013-01-02 02:46:00,
2013-01-01 21:51:00,9.0,-2.2,30.17,SE,135,4.7,4.7,60,0.00,,,0.00,WUHU216HW,2013-01-02 02:51:00,
2013-01-01 21:56:00,9.0,-1.8,30.16,SE,135,3.1,5.4,61,0.00,,,0.00,WUHU216HW,2013-01-02 02:56:00,
2013-01-01 22:01:00,9.0,-1.8,30.16,SE,135,1.1,5.4,61,0.00,,,0.00,WUHU216HW,2013-01-02 03:01:00,
2013-01-01 22:06:00,8.8,-2.0,30.16,SE,135,3.1,3.1,61,0.00,,,0.00,WUHU216HW,2013-01-02 03:06:00,
2013-01-01 22:11:00,8.3,-2.5,30.17,SSE,158,3.4,3.6,61,0.00,,,0.00,WUHU216HW,2013-01-02 03:11:00,
2013-01-01 22:16:00,8.3,-2.1,30.16,SE,135,3.4,3.8,62,0.00,,,0.00,WUHU216HW,2013-01-02 03:16:00,
2013-01-01 22:21:00,8.3,-2.1,30.16,SSE,158,4.0,4.3,62,0.00,,,0.00,WUHU216HW,2013-01-02 03:21:00,
2013-01-01 22:26:00,8.1,-2.3,30.17,SE,135,4.0,4.7,62,0.00,,,0.00,WUHU216HW,2013-01-02 03:26:00,
2013-01-01 22:31:00,7.9,-2.5,30.17,SE,135,4.5,4.7,62,0.00,,,0.00,WUHU216HW,2013-01-02 03:31:00,
2013-01-01 22:36:00,7.7,-2.3,30.18,SE,135,3.4,4.5,63,0.00,,,0.00,WUHU216HW,2013-01-02 03:36:00,
2013-01-01 22:41:00,7.9,-2.1,30.18,SE,135,3.4,4.0,63,0.00,,,0.00,WUHU216HW,2013-01-02 03:41:00,
2013-01-01 22:46:00,8.1,-2.0,30.17,SSE,158,4.5,4.5,63,0.00,,,0.00,WUHU216HW,2013-01-02 03:46:00,
2013-01-01 22:51:00,8.1,-2.0,30.18,SSE,158,2.2,4.5,63,0.00,,,0.00,WUHU216HW,2013-01-02 03:51:00,
2013-01-01 22:56:00,8.3,-1.5,30.17,SE,135,2.5,3.4,64,0.00,,,0.00,WUHU216HW,2013-01-02 03:56:00,
2013-01-01 23:01:00,8.3,-1.5,30.17,SE,135,3.8,3.8,64,0.00,,,0.00,WUHU216HW,2013-01-02 04:01:00,
2013-01-01 23:06:00,8.1,-1.6,30.18,SE,135,3.4,4.7,64,0.00,,,0.00,WUHU216HW,2013-01-02 04:06:00,
2013-01-01 23:11:00,8.3,-1.5,30.18,ESE,113,0.9,4.7,64,0.00,,,0.00,WUHU216HW,2013-01-02 04:11:00,
2013-01-01 23:16:00,8.5,-1.3,30.17,ESE,113,1.1,2.9,64,0.00,,,0.00,WUHU216HW,2013-01-02 04:16:00,
2013-01-01 23:21:00,8.6,-1.2,30.17,SSE,158,2.5,3.4,64,0.00,,,0.00,WUHU216HW,2013-01-02 04:21:00,
2013-01-01 23:26:00,8.6,-1.2,30.18,SE,135,2.0,3.4,64,0.00,,,0.00,WUHU216HW,2013-01-02 04:26:00,
2013-01-01 23:31:00,8.6,-1.2,30.17,SE,135,5.1,5.1,64,0.00,,,0.00,WUHU216HW,2013-01-02 04:31:00,
2013-01-01 23:36:00,8.8,-1.0,30.17,SE,135,5.4,5.4,64,0.00,,,0.00,WUHU216HW,2013-01-02 04:36:00,
2013-01-01 23:41:00,8.6,-0.8,30.17,SE,135,3.8,5.8,65,0.00,,,0.00,WUHU216HW,2013-01-02 04:41:00,
2013-01-01 23:46:00,8.8,-0.6,30.17,SE,135,3.8,5.8,65,0.00,,,0.00,WUHU216HW,2013-01-02 04:46:00,
2013-01-01 23:51:00,9.0,-0.1,30.17,SE,135,6.0,6.0,66,0.00,,,0.00,WUHU216HW,2013-01-02 04:51:00,
2013-01-01 23:56:00,9.4,0.2,30.16,SE,135,6.0,6.0,66,0.00,,,0.00,WUHU216HW,2013-01-02 04:56:00,